Time;durP1;ratioP1;P1;durP2;ratioP2;P2;SDS_P1;SDS_P2;PMS_P1;PMS_P2;Temp;Humidity;BMP_temperature;BMP_pressure;BME280_temperature;BME280_humidity;BME280_pressure;Samples;Min_cycle;Max_cycle;Signal;HPM_P1;HPM_P2
2021/03/27 00:01:04;;;;;;;120.70;51.70;;;5.50;78.70;;;;;;5054585;28;20461;-75
2021/03/27 00:04:04;;;;;;;108.50;48.58;;;5.40;78.60;;;;;;5054400;28;20030;-75
2021/03/27 00:06:44;;;;;;;94.50;44.83;;;5.40;79.10;;;;;;5054418;28;20025;-76
2021/03/27 00:09:13;;;;;;;100.75;42.67;;;5.40;79.60;;;;;;5054248;28;20128;-76
2021/03/27 00:11:54;;;;;;;91.28;44.40;;;5.30;80.40;;;;;;5052991;28;20056;-76
2021/03/27 00:14:33;;;;;;;96.47;44.90;;;5.30;80.70;;;;;;5052858;28;20033;-76
2021/03/27 00:17:10;;;;;;;99.03;46.65;;;5.20;80.80;;;;;;5054141;28;20043;-76
2021/03/27 00:19:51;;;;;;;104.03;43.13;;;5.20;81.00;;;;;;5052800;28;20108;-76
2021/03/27 00:22:32;;;;;;;102.13;45.35;;;5.10;81.70;;;;;;5053973;28;20017;-76
2021/03/27 00:25:08;;;;;;;95.45;44.85;;;5.00;82.50;;;;;;5052686;28;20021;-76
2021/03/27 00:27:54;;;;;;;87.38;39.10;;;5.00;83.00;;;;;;5052662;28;20497;-76
2021/03/27 00:30:36;;;;;;;92.15;40.78;;;4.80;84.10;;;;;;5052538;28;20017;-76
2021/03/27 00:33:03;;;;;;;81.55;38.15;;;4.80;83.80;;;;;;5052532;28;20025;-76
2021/03/27 00:35:41;;;;;;;84.68;39.70;;;4.80;84.20;;;;;;5053725;28;20049;-76
2021/03/27 00:38:14;;;;;;;82.20;39.92;;;4.70;82.70;;;;;;5053743;28;20025;-76
2021/03/27 00:40:49;;;;;;;84.05;40.08;;;4.70;83.40;;;;;;5053730;28;20096;-76
2021/03/27 00:43:20;;;;;;;85.32;40.83;;;4.60;83.90;;;;;;5053519;28;20064;-77
2021/03/27 00:45:50;;;;;;;86.60;40.97;;;4.60;83.60;;;;;;5053641;28;20017;-76
2021/03/27 00:48:22;;;;;;;95.38;42.53;;;4.50;84.20;;;;;;5052329;28;20040;-76
2021/03/27 00:50:52;;;;;;;87.82;41.88;;;4.50;85.60;;;;;;5053603;28;20146;-76
2021/03/27 00:53:39;;;;;;;91.68;44.05;;;4.40;85.40;;;;;;5053074;28;20021;-76
2021/03/27 00:56:10;;;;;;;81.63;37.95;;;4.40;84.50;;;;;;5052132;28;20028;-76
2021/03/27 00:58:48;;;;;;;84.72;39.90;;;4.30;84.30;;;;;;5053365;28;20029;-76
2021/03/27 01:01:17;;;;;;;80.38;37.20;;;4.20;84.60;;;;;;5053322;28;20051;-76
2021/03/27 01:03:54;;;;;;;84.05;39.75;;;4.00;84.40;;;;;;5053214;28;20119;-76
2021/03/27 01:06:34;;;;;;;80.75;39.13;;;4.00;85.20;;;;;;5052000;28;20013;-77
2021/03/27 01:09:02;;;;;;;84.75;40.85;;;3.90;86.40;;;;;;5051823;28;20099;-77
2021/03/27 01:11:40;;;;;;;80.90;39.38;;;3.80;86.50;;;;;;5053178;28;20155;-77
2021/03/27 01:14:13;;;;;;;85.00;39.72;;;3.70;86.70;;;;;;5053097;28;20491;-77
2021/03/27 01:16:46;;;;;;;84.28;38.75;;;3.60;87.80;;;;;;5053110;28;20028;-76
2021/03/27 01:19:17;;;;;;;85.60;39.72;;;3.60;87.70;;;;;;5051769;28;20024;-77
2021/03/27 01:21:46;;;;;;;75.65;37.10;;;3.50;88.30;;;;;;5052977;28;20137;-77
2021/03/27 01:24:14;;;;;;;79.53;38.03;;;3.40;90.00;;;;;;5052809;28;20040;-77
2021/03/27 01:26:51;;;;;;;81.43;36.78;;;3.40;91.20;;;;;;5051695;28;20021;-77
2021/03/27 01:29:43;;;;;;;82.82;39.55;;;3.30;92.00;;;;;;5052883;28;20048;-77
2021/03/27 01:32:14;;;;;;;76.30;36.97;;;3.30;92.50;;;;;;5048386;28;20107;-76
2021/03/27 01:35:02;;;;;;;83.10;36.55;;;3.30;92.30;;;;;;5051544;28;20267;-76
2021/03/27 01:37:53;;;;;;;88.78;39.70;;;3.10;93.80;;;;;;5052829;28;20108;-75
2021/03/27 01:40:33;;;;;;;90.88;40.75;;;3.00;94.50;;;;;;5052719;28;20414;-76
2021/03/27 01:42:59;;;;;;;84.00;39.13;;;3.00;94.60;;;;;;5052683;28;20033;-76
2021/03/27 01:45:48;;;;;;;84.28;41.08;;;2.90;94.80;;;;;;5051639;28;20040;-76
2021/03/27 01:48:23;;;;;;;89.72;41.15;;;2.90;97.80;;;;;;5051440;28;20033;-77
2021/03/27 01:51:02;;;;;;;92.18;39.38;;;2.80;95.80;;;;;;5051450;28;20078;-76
2021/03/27 01:53:37;;;;;;;251.75;85.80;;;2.80;95.10;;;;;;5052764;28;20040;-76
2021/03/27 01:56:44;;;;;;;164.27;61.53;;;2.80;94.70;;;;;;5052678;28;20406;-76
2021/03/27 01:59:19;;;;;;;82.85;37.60;;;2.70;94.90;;;;;;5047336;28;20483;-76
2021/03/27 02:01:48;;;;;;;80.05;34.10;;;2.70;98.80;;;;;;5052744;28;20035;-76
2021/03/27 02:04:27;;;;;;;70.72;34.92;;;2.70;99.30;;;;;;5051351;28;20162;-76
2021/03/27 02:07:03;;;;;;;90.20;37.50;;;2.60;99.60;;;;;;5055412;28;20025;-77
2021/03/27 02:09:38;;;;;;;70.32;34.10;;;2.60;99.00;;;;;;5056548;28;20025;-76
2021/03/27 02:12:22;;;;;;;64.18;32.17;;;2.60;99.40;;;;;;5056518;28;20108;-77
2021/03/27 02:15:17;;;;;;;65.22;32.42;;;2.60;99.30;;;;;;5056487;28;20065;-76
2021/03/27 02:18:07;;;;;;;68.35;32.63;;;2.50;98.40;;;;;;5055160;28;20486;-77
2021/03/27 02:20:51;;;;;;;68.00;31.35;;;2.50;99.90;;;;;;5055022;28;20118;-76
2021/03/27 02:23:34;;;;;;;72.47;33.03;;;2.50;99.70;;;;;;5054928;28;20052;-77
2021/03/27 02:26:22;;;;;;;74.72;36.03;;;2.40;98.50;;;;;;5054944;28;20056;-77
2021/03/27 02:29:06;;;;;;;123.43;49.65;;;2.40;97.00;;;;;;5056288;28;20028;-77
2021/03/27 02:31:42;;;;;;;124.70;49.60;;;2.30;97.20;;;;;;5054925;28;20029;-77
2021/03/27 02:34:38;;;;;;;116.88;46.13;;;2.30;96.80;;;;;;5054752;28;20021;-77
2021/03/27 02:37:28;;;;;;;114.05;46.15;;;2.30;98.80;;;;;;5054768;28;20483;-77
2021/03/27 02:40:05;;;;;;;103.20;43.20;;;2.20;98.20;;;;;;5056394;28;20462;-77
2021/03/27 02:42:55;;;;;;;74.32;33.70;;;2.20;97.00;;;;;;5054632;28;20036;-77
2021/03/27 02:45:33;;;;;;;76.75;33.42;;;2.20;98.50;;;;;;5054424;28;20036;-77
2021/03/27 02:48:37;;;;;;;66.95;32.42;;;2.10;99.90;;;;;;5055770;28;20029;-76
2021/03/27 02:51:38;;;;;;;62.70;29.48;;;2.10;99.90;;;;;;5054659;28;20494;-76
2021/03/27 02:54:06;;;;;;;63.22;28.92;;;2.20;99.90;;;;;;5054335;28;20025;-76
2021/03/27 02:56:57;;;;;;;66.43;30.52;;;2.20;99.90;;;;;;5054378;28;20028;-76
2021/03/27 02:59:38;;;;;;;66.68;30.45;;;2.20;99.90;;;;;;5054345;28;20021;-75
2021/03/27 03:02:29;;;;;;;57.22;28.83;;;2.30;99.90;;;;;;5055613;28;20025;-76
2021/03/27 03:05:23;;;;;;;73.03;32.38;;;2.30;99.90;;;;;;5054231;28;20406;-75
2021/03/27 03:08:10;;;;;;;76.85;32.45;;;2.30;99.90;;;;;;5054271;28;20029;-75
2021/03/27 03:10:43;;;;;;;65.10;29.65;;;2.30;99.90;;;;;;5054155;28;20494;-76
2021/03/27 03:13:11;;;;;;;76.80;30.67;;;2.40;99.90;;;;;;5055265;28;20044;-76
2021/03/27 03:15:49;;;;;;;80.15;35.83;;;2.50;99.90;;;;;;5052001;28;20025;-76
2021/03/27 03:18:24;;;;;;;77.22;36.83;;;2.50;99.90;;;;;;5055116;28;20044;-77
2021/03/27 03:21:01;;;;;;;78.32;35.80;;;2.50;99.90;;;;;;5055169;28;20025;-76
2021/03/27 03:23:29;;;;;;;69.30;33.90;;;2.60;99.90;;;;;;5053788;28;20095;-76
2021/03/27 03:26:06;;;;;;;68.13;32.42;;;2.70;99.90;;;;;;5053804;28;20111;-76
2021/03/27 03:28:51;;;;;;;66.70;29.50;;;2.70;99.90;;;;;;5053781;28;20031;-76
2021/03/27 03:31:35;;;;;;;58.60;28.52;;;2.80;99.90;;;;;;5055045;28;20490;-76
2021/03/27 03:34:23;;;;;;;57.60;28.02;;;3.00;99.90;;;;;;5054987;28;20043;-76
2021/03/27 03:37:07;;;;;;;55.65;27.75;;;3.10;99.90;;;;;;5053670;28;20024;-76
2021/03/27 03:40:06;;;;;;;63.60;28.90;;;3.10;99.90;;;;;;5054894;28;20031;-76
2021/03/27 03:43:01;;;;;;;59.38;28.02;;;3.30;99.90;;;;;;5054780;28;20532;-76
2021/03/27 03:45:32;;;;;;;59.80;28.83;;;3.30;99.90;;;;;;5053534;28;20033;-75
2021/03/27 03:48:43;;;;;;;59.28;26.65;;;3.50;99.90;;;;;;5053517;28;20033;-76
2021/03/27 03:51:17;;;;;;;51.75;25.55;;;3.50;99.90;;;;;;5053377;28;20025;-76
2021/03/27 03:54:11;;;;;;;53.85;27.33;;;3.50;99.90;;;;;;5053612;28;20036;-76
2021/03/27 03:56:39;;;;;;;64.70;29.58;;;3.50;99.90;;;;;;5053365;28;20103;-76
2021/03/27 03:59:20;;;;;;;65.82;30.38;;;3.30;98.90;;;;;;5054479;28;20039;-76
2021/03/27 04:01:58;;;;;;;95.38;40.22;;;3.30;98.70;;;;;;5053281;28;20029;-76
2021/03/27 04:04:31;;;;;;;69.20;31.88;;;3.30;99.90;;;;;;5054343;28;20120;-76
2021/03/27 04:07:02;;;;;;;;;;;3.20;99.60;;;;;;5053601;28;20029;-76
2021/03/27 04:09:38;;;;;;;88.65;37.05;;;3.10;99.90;;;;;;5052903;28;20389;-76
2021/03/27 04:12:06;;;;;;;79.90;35.47;;;3.00;99.90;;;;;;5052960;28;20028;-76
2021/03/27 04:14:35;;;;;;;53.35;25.23;;;3.00;99.90;;;;;;5052952;28;20029;-76
2021/03/27 04:17:07;;;;;;;52.75;24.55;;;3.10;99.90;;;;;;5052906;28;20036;-77
2021/03/27 04:19:40;;;;;;;52.72;27.45;;;3.20;99.90;;;;;;5054188;28;20031;-76
2021/03/27 04:22:15;;;;;;;47.58;24.80;;;3.30;99.90;;;;;;5052823;28;20028;-75
2021/03/27 04:25:07;;;;;;;53.78;26.13;;;3.30;99.90;;;;;;5052729;28;20453;-76
2021/03/27 04:27:42;;;;;;;54.75;26.40;;;3.30;99.60;;;;;;5053272;28;20021;-76
2021/03/27 04:30:20;;;;;;;52.92;24.40;;;3.30;99.30;;;;;;5052542;28;20021;-75
2021/03/27 04:33:09;;;;;;;56.03;25.88;;;3.50;98.80;;;;;;5053931;28;20013;-75
2021/03/27 04:35:57;;;;;;;50.13;26.67;;;3.50;96.80;;;;;;5052547;28;20025;-76
2021/03/27 04:39:01;;;;;;;54.42;26.95;;;3.40;96.10;;;;;;5053803;28;20033;-74
2021/03/27 04:41:39;;;;;;;54.78;26.27;;;3.50;97.20;;;;;;5052837;28;20457;-74
2021/03/27 04:44:24;;;;;;;51.45;25.10;;;3.50;96.90;;;;;;5053507;28;20497;-74
2021/03/27 04:47:11;;;;;;;52.90;27.23;;;3.50;96.50;;;;;;5053702;28;20021;-74
2021/03/27 04:49:55;;;;;;;54.92;25.30;;;3.40;96.00;;;;;;5053514;28;20123;-75
2021/03/27 04:52:33;;;;;;;52.30;25.58;;;3.40;96.90;;;;;;5052206;28;20082;-74
2021/03/27 04:55:19;;;;;;;53.05;25.42;;;3.40;96.50;;;;;;5052095;28;20079;-74
2021/03/27 04:58:18;;;;;;;52.33;25.75;;;3.40;96.60;;;;;;5053125;28;20037;-74
2021/03/27 05:01:06;;;;;;;54.22;25.25;;;3.50;97.10;;;;;;5052160;28;20060;-74
2021/03/27 05:03:48;;;;;;;47.22;24.30;;;3.60;96.70;;;;;;5051986;28;20049;-74
2021/03/27 05:06:21;;;;;;;48.58;24.10;;;3.70;95.70;;;;;;5053268;28;20025;-74
2021/03/27 05:08:59;;;;;;;55.63;26.80;;;3.70;95.40;;;;;;5053329;28;20078;-74
2021/03/27 05:11:50;;;;;;;52.95;26.83;;;3.80;94.10;;;;;;5052139;28;20036;-75
2021/03/27 05:14:33;;;;;;;70.57;31.23;;;3.90;93.60;;;;;;5052957;28;20029;-76
2021/03/27 05:17:25;;;;;;;60.13;26.45;;;3.90;92.70;;;;;;5053177;28;20024;-73
2021/03/27 05:20:24;;;;;;;39.75;20.88;;;3.90;92.80;;;;;;5051847;28;20042;-74
2021/03/27 05:23:20;;;;;;;51.55;24.67;;;4.20;92.80;;;;;;5053018;28;20057;-74
2021/03/27 05:26:27;;;;;;;41.75;21.13;;;4.30;92.70;;;;;;5053135;28;20055;-74
2021/03/27 05:29:31;;;;;;;45.40;20.95;;;4.60;89.90;;;;;;5051625;28;20100;-74
2021/03/27 05:32:34;;;;;;;52.00;22.13;;;4.80;88.20;;;;;;5051759;28;20053;-74
2021/03/27 05:35:13;;;;;;;47.28;21.80;;;5.00;87.20;;;;;;5051588;28;20127;-74
2021/03/27 05:38:08;;;;;;;50.60;23.35;;;5.20;86.70;;;;;;5052878;28;20139;-74
2021/03/27 05:41:06;;;;;;;45.58;23.92;;;5.30;85.30;;;;;;5051533;28;20111;-74
2021/03/27 05:43:52;;;;;;;44.72;22.92;;;5.40;84.20;;;;;;5051475;28;20049;-74
2021/03/27 05:46:36;;;;;;;44.35;22.80;;;5.60;83.00;;;;;;5052798;28;20021;-74
2021/03/27 05:49:34;;;;;;;48.55;24.33;;;5.80;81.60;;;;;;5052683;28;20033;-74
2021/03/27 05:52:27;;;;;;;44.08;21.65;;;6.00;79.50;;;;;;5051482;28;20470;-74
2021/03/27 05:55:17;;;;;;;50.08;24.30;;;6.20;78.90;;;;;;5051426;28;20056;-74
2021/03/27 05:57:55;;;;;;;44.30;22.48;;;6.50;78.30;;;;;;5051408;28;20474;-77
2021/03/27 06:00:20;;;;;;;42.97;21.67;;;6.70;77.70;;;;;;5051266;28;20115;-76
2021/03/27 06:02:52;;;;;;;35.58;18.95;;;6.90;77.10;;;;;;5052645;28;20115;-76
2021/03/27 06:05:34;;;;;;;40.35;21.02;;;7.20;76.70;;;;;;5052551;28;20120;-77
2021/03/27 06:08:42;;;;;;;40.55;18.20;;;7.40;76.50;;;;;;5051341;28;20136;-77
2021/03/27 06:11:22;;;;;;;41.85;20.73;;;7.60;68.50;;;;;;5050029;28;20498;-76
2021/03/27 06:14:25;;;;;;;34.38;17.92;;;7.70;67.70;;;;;;5052163;28;20540;-76
2021/03/27 06:16:56;;;;;;;29.45;17.02;;;7.90;65.70;;;;;;5038512;28;20418;-76
2021/03/27 06:19:50;;;;;;;32.25;17.02;;;8.00;63.60;;;;;;5030757;28;20399;-76
2021/03/27 06:22:28;;;;;;;34.13;18.45;;;8.10;64.70;;;;;;5032450;28;20026;-77
2021/03/27 06:25:43;;;;;;;31.05;16.73;;;8.20;63.20;;;;;;5032471;28;20029;-77
2021/03/27 06:28:46;;;;;;;35.72;18.30;;;8.30;62.50;;;;;;5031184;28;20048;-78
2021/03/27 06:31:14;;;;;;;31.98;16.67;;;8.40;64.60;;;;;;5031118;28;20071;-77
2021/03/27 06:34:10;;;;;;;36.38;18.17;;;8.50;65.20;;;;;;5031880;28;20073;-77
2021/03/27 06:37:11;;;;;;;33.47;17.80;;;8.50;65.50;;;;;;5032464;28;20484;-77
2021/03/27 06:40:05;;;;;;;34.88;17.38;;;8.50;64.50;;;;;;5031022;28;20100;-78
2021/03/27 06:43:05;;;;;;;36.25;16.35;;;8.50;63.70;;;;;;5041599;28;20098;-77
2021/03/27 06:45:56;;;;;;;35.20;17.63;;;8.50;63.70;;;;;;5047262;28;20036;-78
2021/03/27 06:48:37;;;;;;;36.42;17.98;;;8.50;64.60;;;;;;5048689;28;20033;-78
2021/03/27 06:51:43;;;;;;;32.50;17.98;;;8.60;63.90;;;;;;5050098;28;20028;-78
2021/03/27 06:54:56;;;;;;;33.03;16.42;;;8.70;64.00;;;;;;5050073;28;20095;-78
2021/03/27 06:57:53;;;;;;;31.20;16.10;;;8.70;64.50;;;;;;5029181;28;20026;-78
2021/03/27 07:00:30;;;;;;;31.33;16.48;;;8.90;63.30;;;;;;5020799;28;20055;-77
2021/03/27 07:03:17;;;;;;;35.58;17.77;;;9.20;62.10;;;;;;5049231;28;20394;-78
2021/03/27 07:06:04;;;;;;;29.77;17.35;;;9.30;59.80;;;;;;5053668;28;20107;-78
2021/03/27 07:09:15;;;;;;;31.27;15.95;;;9.60;59.80;;;;;;5068595;28;20494;-78
2021/03/27 07:11:59;;;;;;;25.58;15.48;;;9.80;59.00;;;;;;5051597;28;20029;-78
2021/03/27 07:15:02;;;;;;;28.90;16.23;;;10.00;58.00;;;;;;5049391;28;20036;-77
2021/03/27 07:17:34;;;;;;;32.15;17.63;;;10.20;57.10;;;;;;5055224;28;20033;-77
2021/03/27 07:20:21;;;;;;;25.65;15.20;;;10.40;57.00;;;;;;5048246;28;20364;-78
2021/03/27 07:23:22;;;;;;;33.47;17.20;;;10.60;57.00;;;;;;5033652;28;20128;-78
2021/03/27 07:26:18;;;;;;;27.38;16.02;;;10.80;56.50;;;;;;5034749;28;20033;-78
2021/03/27 07:28:57;;;;;;;31.27;16.83;;;11.00;56.10;;;;;;5046517;28;20036;-78
2021/03/27 07:31:41;;;;;;;37.90;18.60;;;11.30;55.70;;;;;;5050404;28;20056;-78
2021/03/27 07:34:32;;;;;;;29.83;16.08;;;11.50;54.50;;;;;;5050958;28;20359;-78
2021/03/27 07:37:04;;;;;;;34.65;18.50;;;11.70;53.10;;;;;;5052892;28;20021;-77
2021/03/27 07:39:48;;;;;;;32.40;16.42;;;11.90;53.50;;;;;;5053130;28;20033;-78
2021/03/27 07:42:32;;;;;;;28.58;15.00;;;12.10;52.40;;;;;;5052971;28;20360;-76
2021/03/27 07:45:19;;;;;;;35.20;19.55;;;12.30;51.70;;;;;;5051912;28;20486;-75
2021/03/27 07:48:22;;;;;;;34.88;19.42;;;12.50;51.10;;;;;;5067819;28;20032;-75
2021/03/27 07:51:02;;;;;;;28.38;13.90;;;12.80;51.20;;;;;;5051961;28;20409;-74
2021/03/27 07:53:40;;;;;;;23.42;14.43;;;13.00;49.70;;;;;;5054233;28;20546;-75
2021/03/27 07:56:39;;;;;;;36.83;15.63;;;13.20;49.20;;;;;;5053060;28;20017;-75
2021/03/27 07:59:32;;;;;;;22.00;11.90;;;13.40;48.70;;;;;;5054015;28;20053;-75
2021/03/27 08:02:20;;;;;;;21.27;11.23;;;13.60;47.30;;;;;;5053546;28;20029;-75
2021/03/27 08:04:57;;;;;;;21.38;11.68;;;13.70;46.90;;;;;;5052876;28;20431;-75
2021/03/27 08:07:52;;;;;;;23.58;12.02;;;13.80;46.00;;;;;;5053257;28;20036;-75
2021/03/27 08:10:30;;;;;;;25.65;11.90;;;13.90;45.70;;;;;;5054072;28;20075;-76
2021/03/27 08:13:08;;;;;;;25.13;11.80;;;14.00;45.60;;;;;;5052293;28;20128;-75
2021/03/27 08:16:14;;;;;;;27.02;12.38;;;14.10;45.20;;;;;;5053753;28;20055;-75
2021/03/27 08:19:09;;;;;;;26.20;12.48;;;14.20;45.20;;;;;;5053395;28;20017;-75
2021/03/27 08:21:44;;;;;;;21.92;12.75;;;14.40;44.80;;;;;;5051007;28;20037;-76
2021/03/27 08:24:46;;;;;;;22.40;12.20;;;14.50;45.00;;;;;;5050695;28;20036;-75
2021/03/27 08:27:44;;;;;;;27.40;13.00;;;14.70;44.60;;;;;;5050615;28;20043;-75
2021/03/27 08:30:35;;;;;;;23.27;11.85;;;14.70;43.70;;;;;;5047465;28;20433;-76
2021/03/27 08:33:16;;;;;;;24.35;12.30;;;14.70;43.50;;;;;;5052388;28;20028;-76
2021/03/27 08:35:56;;;;;;;22.50;12.02;;;14.80;43.90;;;;;;5052567;28;20147;-76
2021/03/27 08:38:27;;;;;;;22.13;12.15;;;14.90;43.80;;;;;;5052174;28;20112;-76
2021/03/27 08:41:17;;;;;;;23.88;12.18;;;15.00;43.40;;;;;;5051876;28;20167;-76
2021/03/27 08:44:08;;;;;;;20.20;12.10;;;15.10;43.30;;;;;;5051120;28;20394;-76
2021/03/27 08:47:01;;;;;;;23.33;12.48;;;15.30;43.80;;;;;;5051291;28;20028;-76
2021/03/27 08:49:49;;;;;;;24.98;11.70;;;15.40;42.90;;;;;;5066943;28;20455;-77
2021/03/27 08:52:35;;;;;;;21.27;11.90;;;15.40;42.00;;;;;;5051931;28;20104;-76
2021/03/27 08:55:42;;;;;;;24.38;11.82;;;15.20;41.50;;;;;;5066076;28;20509;-77
2021/03/27 08:58:16;;;;;;;23.95;11.50;;;15.20;42.30;;;;;;5050200;28;20418;-77
2021/03/27 09:01:43;;;;;;;25.80;12.00;;;15.10;42.20;;;;;;5050985;28;20021;-76
2021/03/27 09:04:50;;;;;;;22.05;12.48;;;15.20;42.00;;;;;;5018797;28;20375;-76
2021/03/27 09:07:32;;;;;;;20.90;10.75;;;15.40;43.10;;;;;;4991947;28;20084;-76
2021/03/27 09:10:40;;;;;;;23.77;11.85;;;15.40;41.60;;;;;;4991913;28;20069;-77
2021/03/27 09:13:16;;;;;;;21.10;10.93;;;15.60;42.10;;;;;;5039245;28;20512;-76
2021/03/27 09:15:57;;;;;;;18.48;10.80;;;15.80;41.50;;;;;;5051879;28;20390;-77
2021/03/27 09:18:53;;;;;;;19.02;9.95;;;15.90;41.50;;;;;;5051702;28;20033;-77
2021/03/27 09:21:45;;;;;;;21.15;11.23;;;16.20;42.00;;;;;;5052990;28;20474;-76
2021/03/27 09:24:23;;;;;;;20.80;10.88;;;16.40;41.40;;;;;;5031822;28;20046;-77
2021/03/27 09:26:57;;;;;;;22.75;12.77;;;16.40;40.30;;;;;;5033115;28;20115;-76
2021/03/27 09:29:41;;;;;;;21.08;11.60;;;16.60;40.30;;;;;;5032776;28;20030;-77
2021/03/27 09:32:49;;;;;;;21.13;11.43;;;16.60;39.80;;;;;;5033083;28;20435;-77
2021/03/27 09:35:24;;;;;;;20.08;10.45;;;16.60;39.30;;;;;;5032966;28;20033;-77
2021/03/27 09:38:14;;;;;;;21.65;10.98;;;16.60;38.90;;;;;;5031781;28;20546;-77
2021/03/27 09:41:15;;;;;;;20.00;11.05;;;16.70;38.90;;;;;;5032888;28;20076;-77
2021/03/27 09:44:19;;;;;;;22.80;10.27;;;16.70;38.50;;;;;;5030165;28;20439;-77
2021/03/27 09:46:53;;;;;;;18.80;10.73;;;16.70;38.50;;;;;;5032941;28;20475;-77
2021/03/27 09:49:27;;;;;;;21.42;11.20;;;16.70;38.60;;;;;;5031420;28;20032;-77
2021/03/27 09:52:08;;;;;;;21.30;11.27;;;16.70;39.00;;;;;;5045411;28;20108;-77
2021/03/27 09:54:42;;;;;;;21.80;11.13;;;16.80;38.20;;;;;;5051390;28;20017;-76
2021/03/27 09:57:32;;;;;;;21.40;11.75;;;16.80;38.40;;;;;;5051215;28;20025;-77
2021/03/27 10:00:14;;;;;;;19.10;10.98;;;17.00;38.70;;;;;;5031478;28;20032;-78
2021/03/27 10:02:46;;;;;;;21.13;10.95;;;16.90;37.50;;;;;;5040478;28;20048;-76
2021/03/27 10:05:54;;;;;;;21.88;11.32;;;16.90;37.60;;;;;;5052534;28;20033;-78
2021/03/27 10:08:29;;;;;;;19.92;11.18;;;16.80;37.00;;;;;;4974884;28;20026;-77
2021/03/27 10:11:05;;;;;;;21.67;9.40;;;17.00;37.40;;;;;;5060188;28;20628;-77
2021/03/27 10:13:58;;;;;;;26.27;11.50;;;17.00;37.20;;;;;;5051295;28;20112;-77
2021/03/27 10:17:05;;;;;;;19.40;8.68;;;16.90;37.40;;;;;;5051278;28;20056;-77
2021/03/27 10:20:08;;;;;;;22.42;10.27;;;17.10;36.70;;;;;;5052384;28;20025;-77
2021/03/27 10:23:00;;;;;;;23.10;9.70;;;17.20;36.80;;;;;;5052406;28;20025;-77
2021/03/27 10:25:35;;;;;;;17.15;8.80;;;17.30;36.90;;;;;;5050441;28;20461;-77
2021/03/27 10:28:06;;;;;;;16.92;8.70;;;17.30;36.50;;;;;;5055071;28;20078;-77
2021/03/27 10:30:58;;;;;;;19.65;8.07;;;17.30;36.70;;;;;;5054870;28;20021;-77
2021/03/27 10:34:01;;;;;;;14.85;7.85;;;17.20;36.20;;;;;;5054921;28;20454;-78
2021/03/27 10:36:47;;;;;;;15.68;7.53;;;17.20;36.40;;;;;;5054864;28;20127;-77
2021/03/27 10:39:26;;;;;;;15.80;8.27;;;17.50;36.50;;;;;;5055967;28;20042;-77
2021/03/27 10:42:13;;;;;;;14.88;7.82;;;17.60;35.90;;;;;;5054765;28;20025;-77
2021/03/27 10:45:06;;;;;;;15.55;7.43;;;17.80;36.00;;;;;;5054560;28;20067;-77
2021/03/27 10:47:45;;;;;;;102.70;14.55;;;18.10;35.90;;;;;;5055935;28;20024;-77
2021/03/27 10:50:59;;;;;;;15.15;7.57;;;18.40;35.90;;;;;;5054023;28;20382;-77
2021/03/27 10:53:36;;;;;;;;;;;18.70;35.90;;;;;;5019503;28;20118;-76
2021/03/27 10:56:21;;;;;;;20.33;8.13;;;18.80;34.60;;;;;;5040991;28;19915;-77
2021/03/27 10:59:26;;;;;;;27.80;9.57;;;18.80;33.70;;;;;;5050749;28;20459;-77
2021/03/27 11:02:19;;;;;;;25.52;13.52;;;18.50;33.10;;;;;;5031118;28;20021;-76
2021/03/27 11:05:09;;;;;;;16.42;9.30;;;18.20;33.10;;;;;;5053751;28;20041;-76
2021/03/27 11:08:06;;;;;;;15.10;7.95;;;17.90;33.90;;;;;;5052486;28;20467;-76
2021/03/27 11:10:54;;;;;;;17.67;7.85;;;17.70;34.00;;;;;;5054590;28;20421;-76
2021/03/27 11:13:51;;;;;;;18.83;9.60;;;17.90;34.80;;;;;;5051729;28;20462;-76
2021/03/27 11:16:16;;;;;;;14.57;8.52;;;17.90;34.50;;;;;;5052923;28;20040;-76
2021/03/27 11:19:19;;;;;;;18.70;8.60;;;17.80;34.80;;;;;;5053786;28;20033;-76
2021/03/27 11:21:45;;;;;;;;;;;17.60;34.60;;;;;;5054996;28;20021;-76
2021/03/27 11:24:29;;;;;;;14.23;8.18;;;17.60;35.10;;;;;;5054632;28;19923;-76
2021/03/27 11:27:32;;;;;;;20.58;9.60;;;17.70;35.30;;;;;;5051770;28;20029;-77
2021/03/27 11:29:58;;;;;;;;;;;17.80;35.20;;;;;;5052037;28;20117;-77
2021/03/27 11:32:31;;;;;;;174.63;63.55;;;17.80;35.40;;;;;;5053991;28;20043;-77
2021/03/27 11:35:00;;;;;;;414.73;149.50;;;18.00;35.60;;;;;;5052826;28;20025;-77
2021/03/27 11:37:50;;;;;;;198.40;73.88;;;17.80;34.90;;;;;;5053254;28;20021;-77
2021/03/27 11:40:25;;;;;;;45.40;15.82;;;17.80;35.10;;;;;;5050970;28;20025;-77
2021/03/27 11:43:15;;;;;;;20.05;8.82;;;17.70;35.40;;;;;;5068975;28;20039;-77
2021/03/27 11:45:47;;;;;;;31.90;12.77;;;17.70;35.70;;;;;;5053079;28;20409;-77
2021/03/27 11:48:37;;;;;;;43.80;17.80;;;17.60;35.60;;;;;;5051046;28;20056;-77
2021/03/27 11:51:17;;;;;;;21.60;10.38;;;17.30;35.40;;;;;;5052529;28;20474;-76
2021/03/27 11:53:45;;;;;;;56.17;22.10;;;17.20;35.60;;;;;;5054249;28;20020;-76
2021/03/27 11:56:36;;;;;;;159.15;51.83;;;17.20;35.80;;;;;;5055525;28;20057;-78
2021/03/27 12:02:05;;;;;;;34.70;14.88;;;17.40;35.90;;;;;;5052522;28;20044;-77
2021/03/27 12:05:11;;;;;;;43.20;13.05;;;17.30;35.60;;;;;;5048265;28;20048;-77
2021/03/27 12:07:57;;;;;;;25.38;10.85;;;17.30;36.00;;;;;;5051509;28;20032;-77
2021/03/27 12:10:50;;;;;;;31.13;13.07;;;17.30;36.00;;;;;;5052480;28;20029;-77
2021/03/27 12:13:38;;;;;;;25.85;11.48;;;17.20;36.30;;;;;;5050705;28;20443;-77
2021/03/27 12:16:25;;;;;;;24.63;10.48;;;17.10;36.50;;;;;;5066590;28;20025;-78
2021/03/27 12:19:11;;;;;;;26.55;10.45;;;16.90;36.50;;;;;;5050867;28;20502;-78
2021/03/27 12:21:45;;;;;;;27.40;11.63;;;16.90;36.90;;;;;;5051808;28;20041;-78
2021/03/27 12:24:51;;;;;;;61.55;23.13;;;16.90;36.90;;;;;;5048349;28;20496;-78
2021/03/27 12:27:39;;;;;;;158.93;59.65;;;17.00;37.00;;;;;;5050088;28;20486;-79
2021/03/27 12:30:34;;;;;;;57.97;26.35;;;17.10;37.00;;;;;;5048663;28;20487;-79
2021/03/27 12:33:39;;;;;;;32.25;19.92;;;17.30;37.00;;;;;;5049805;28;20028;-79
2021/03/27 12:36:16;;;;;;;24.10;11.48;;;17.30;36.40;;;;;;5064655;28;20151;-78
2021/03/27 12:38:48;;;;;;;25.65;12.90;;;17.20;36.80;;;;;;5049790;28;20021;-78
2021/03/27 12:41:25;;;;;;;33.07;16.97;;;17.00;36.80;;;;;;5053184;28;20486;-75
2021/03/27 12:43:55;;;;;;;40.30;19.05;;;16.80;37.00;;;;;;5049679;28;20509;-78
2021/03/27 12:46:39;;;;;;;18.08;12.82;;;16.70;37.90;;;;;;5052636;28;20542;-78
2021/03/27 12:49:28;;;;;;;66.28;23.45;;;16.40;36.60;;;;;;5061848;28;20064;-78
2021/03/27 12:51:59;;;;;;;25.20;10.40;;;16.30;36.90;;;;;;5068914;28;20356;-78
2021/03/27 12:55:00;;;;;;;14.75;8.20;;;16.10;37.70;;;;;;5068851;28;20028;-78
2021/03/27 12:57:54;;;;;;;22.10;9.88;;;16.00;38.40;;;;;;5065489;28;20120;-80
2021/03/27 13:00:35;;;;;;;19.35;13.43;;;15.90;39.10;;;;;;5051214;28;20044;-80
2021/03/27 13:03:25;;;;;;;29.60;14.65;;;15.90;39.30;;;;;;5050385;28;20056;-76
2021/03/27 13:06:03;;;;;;;27.60;12.77;;;16.10;39.30;;;;;;5039995;28;20108;-78
2021/03/27 13:08:43;;;;;;;28.08;15.45;;;16.10;39.10;;;;;;5044321;28;20049;-78
2021/03/27 13:11:24;;;;;;;28.48;14.75;;;16.20;39.00;;;;;;5048209;28;20025;-78
2021/03/27 13:14:23;;;;;;;19.95;10.50;;;16.20;39.00;;;;;;5050275;28;20099;-77
2021/03/27 13:16:51;;;;;;;24.33;12.77;;;16.30;39.20;;;;;;5067074;28;20013;-78
2021/03/27 13:19:38;;;;;;;36.40;18.20;;;16.30;39.00;;;;;;5050936;28;20048;-78
2021/03/27 13:22:18;;;;;;;27.92;15.18;;;16.30;38.70;;;;;;5046381;28;20091;-78
2021/03/27 13:24:54;;;;;;;22.35;11.57;;;16.20;38.90;;;;;;5048495;28;20029;-77
2021/03/27 13:27:30;;;;;;;26.23;14.70;;;16.10;39.20;;;;;;5044706;28;20478;-78
2021/03/27 13:30:12;;;;;;;16.50;10.60;;;16.10;39.70;;;;;;5046283;28;20100;-78
2021/03/27 13:32:42;;;;;;;26.83;13.65;;;16.00;39.80;;;;;;5050455;28;20409;-78
2021/03/27 13:35:21;;;;;;;25.35;12.50;;;15.90;40.10;;;;;;5046374;28;20607;-78
2021/03/27 13:38:03;;;;;;;22.63;11.90;;;15.80;40.50;;;;;;5073670;28;20033;-78
2021/03/27 13:40:35;;;;;;;16.77;10.32;;;15.70;40.70;;;;;;5046305;28;20086;-78
2021/03/27 13:43:14;;;;;;;36.15;16.45;;;15.60;41.20;;;;;;5045167;28;20033;-75
2021/03/27 13:45:55;;;;;;;24.50;14.63;;;15.50;42.00;;;;;;5048305;28;20031;-76
2021/03/27 13:48:29;;;;;;;28.05;14.57;;;15.40;42.70;;;;;;5041690;28;20060;-75
2021/03/27 13:51:02;;;;;;;17.02;10.10;;;15.30;43.60;;;;;;5047092;28;20068;-75
2021/03/27 13:53:58;;;;;;;16.83;10.23;;;15.30;44.50;;;;;;5050076;28;20028;-75
2021/03/27 13:56:27;;;;;;;14.35;7.97;;;15.20;45.40;;;;;;5042018;28;20066;-76
2021/03/27 13:59:22;;;;;;;16.80;8.82;;;15.00;46.10;;;;;;5048502;28;20021;-76
2021/03/27 14:02:12;;;;;;;13.93;8.88;;;14.90;47.00;;;;;;5051681;28;20079;-76
2021/03/27 14:04:45;;;;;;;13.60;8.30;;;14.60;48.00;;;;;;5053949;28;20043;-78